Borja — ICEC — position and weather

sailwx.info

Track history (hours):
 
Tides and Currents Weather Stations Pressure Air Temp Water Temp Dewpoint Dewpoint Depression Visibility Wind Speed Wind Dir Waves Ship Positions

Borja

Last reported at 2014-Oct-23 17:25 UTC. Time now 2014-Oct-23 18:34 UTC.
Position N 36°08' W 005°26'.

Length 186 m; draft 6 m.

Type: Ship. MMSI: 247196400.

Date/timePositionNaut miles runAvg speedWind from/ knotsBaromVisibWave heightAir tempDewpointWater temp
2014-Oct-23 17:25N 36°08' W 005°26'0 0.0
2014-Oct-23 16:31N 36°08' W 005°26'0 0.0
2014-Oct-23 15:28N 36°08' W 005°26'2 2.4
2014-Oct-23 14:34N 36°07' W 005°24'12 3.6
2014-Oct-23 11:20N 35°56' W 005°30'1316.7
2014-Oct-23 10:33N 36°09' W 005°25'1 1.1
2014-Oct-23 09:33N 36°08' W 005°26'1 1.1
2014-Oct-23 08:32N 36°09' W 005°26'16 5.2
2014-Oct-23 05:24N 35°53' W 005°31'1113.2
2014-Oct-23 04:33N 36°03' W 005°24'5 4.7
2014-Oct-23 03:26N 36°08' W 005°26'0 0.0
2014-Oct-23 02:23N 36°08' W 005°26'0 0.0
2014-Oct-23 01:28N 36°08' W 005°26'0 0.1
2014-Oct-23 00:33N 36°08' W 005°26'9 9.5
2014-Oct-22 23:34N 35°59' W 005°26'5 1.5
2014-Oct-22 20:26N 35°56' W 005°30'1315.1
2014-Oct-22 19:33N 36°09' W 005°25'1 1.1
2014-Oct-22 18:33N 36°08' W 005°26'0 0.0
2014-Oct-22 17:33N 36°08' W 005°26'2 1.8
2014-Oct-22 16:33N 36°08' W 005°24'13 2.5
2014-Oct-22 11:27N 35°56' W 005°30'1314.8
2014-Oct-22 10:33N 36°09' W 005°26'1 1.0
2014-Oct-22 09:33N 36°08' W 005°26'1 1.1
2014-Oct-22 08:34N 36°09' W 005°26'13 3.9
2014-Oct-22 05:10N 35°57' W 005°31'1016.1
2014-Oct-22 04:33N 36°05' W 005°24'4 3.9
2014-Oct-22 03:33N 36°08' W 005°26'0 0.0
2014-Oct-22 02:33N 36°08' W 005°26'0 0.0
2014-Oct-22 01:33N 36°08' W 005°26'1 1.4
2014-Oct-22 00:33N 36°09' W 005°25'0 0.1
2014-Oct-21 23:33N 36°09' W 005°25'8 8.5
2014-Oct-21 22:34N 36°01' W 005°24'6 2.1
2014-Oct-21 19:32N 35°57' W 005°30'1212.2
2014-Oct-21 18:34N 36°08' W 005°26'0 0.2
2014-Oct-21 17:34N 36°08' W 005°26'0 0.0
2014-Oct-21 16:33N 36°08' W 005°26'6 5.8
2014-Oct-21 15:33N 36°03' W 005°23'2 0.6
2014-Oct-21 12:33N 36°02' W 005°25'6 6.2
2014-Oct-21 11:33N 36°08' W 005°26'0 0.0
2014-Oct-21 10:33N 36°08' W 005°26'9 8.5
2014-Oct-21 09:33N 35°59' W 005°25'2 0.6
2014-Oct-21 06:33N 36°01' W 005°25'6 2.9
2014-Oct-21 04:21N 36°08' W 005°26'0 0.0
2014-Oct-21 03:27N 36°08' W 005°26'0 0.0
2014-Oct-21 02:33N 36°08' W 005°26'0 0.0
2014-Oct-21 01:27N 36°08' W 005°26'0 0.1
2014-Oct-20 23:13N 36°08' W 005°26'0 0.7
2014-Oct-20 22:33N 36°08' W 005°26'8 2.1
2014-Oct-20 18:29N 36°00' W 005°24'8 3.5
2014-Oct-20 16:09N 36°08' W 005°26'4 7.0
2014-Oct-20 15:33N 36°05' W 005°23'8 2.0
2014-Oct-20 11:33N 35°58' W 005°29'10 9.6
2014-Oct-20 10:32N 36°08' W 005°26'0 0.0
2014-Oct-20 09:33N 36°08' W 005°26'3 3.0
2014-Oct-20 08:33N 36°06' W 005°24'5 1.2
2014-Oct-20 04:31N 36°01' W 005°26'7 5.8
2014-Oct-20 03:22N 36°08' W 005°26'0 0.0
2014-Oct-20 02:28N 36°08' W 005°26'0 0.0
2014-Oct-20 01:31N 36°08' W 005°26'0 0.0
2014-Oct-20 00:16N 36°08' W 005°26'0 0.0
2014-Oct-19 23:31N 36°08' W 005°26'3 3.4
2014-Oct-19 22:34N 36°06' W 005°23'15 4.6
2014-Oct-19 19:22N 35°53' W 005°31'1316.6
2014-Oct-19 18:34N 36°05' W 005°23'4 3.9
2014-Oct-19 17:32N 36°08' W 005°26'0 0.0
2014-Oct-19 16:33N 36°08' W 005°26'4 3.8
2014-Oct-19 15:34N 36°05' W 005°23'3 0.6
2014-Oct-19 11:33N 36°03' W 005°24'5 5.3
2014-Oct-19 10:33N 36°08' W 005°26'0 0.0
2014-Oct-19 09:34N 36°08' W 005°26'1 1.0
2014-Oct-19 08:33N 36°09' W 005°26'1615.3
2014-Oct-19 07:30N 35°53' W 005°31'9 3.0
2014-Oct-19 04:33N 36°01' W 005°26'7 6.7
2014-Oct-19 03:32N 36°08' W 005°26'0 0.0
2014-Oct-19 02:32N 36°08' W 005°26'0 0.0
2014-Oct-19 01:32N 36°08' W 005°26'0 0.0
2014-Oct-19 00:32N 36°08' W 005°26'1 1.1
2014-Oct-18 23:34N 36°09' W 005°26'1212.4
2014-Oct-18 22:34N 35°57' W 005°29'4 1.3
2014-Oct-18 19:14N 35°53' W 005°31'811.3
2014-Oct-18 18:33N 35°59' W 005°26'9 8.2
2014-Oct-18 17:31N 36°08' W 005°26'0 0.0
2014-Oct-18 16:31N 36°08' W 005°26'0 0.2
2014-Oct-18 15:33N 36°08' W 005°26'1010.3
2014-Oct-18 14:33N 35°58' W 005°27'3 1.1
2014-Oct-18 11:30N 35°56' W 005°30'1212.9
2014-Oct-18 10:33N 36°08' W 005°26'0 0.3
2014-Oct-18 09:33N 36°08' W 005°26'2 1.8
2014-Oct-18 08:33N 36°08' W 005°24'16 4.5
2014-Oct-18 05:03N 35°53' W 005°31'817.1
2014-Oct-18 04:34N 36°00' W 005°26'8 7.5
2014-Oct-18 03:33N 36°08' W 005°26'0 0.0
2014-Oct-18 02:33N 36°08' W 005°26'0 0.0
2014-Oct-18 01:18N 36°08' W 005°26'0 0.0
2014-Oct-18 00:33N 36°08' W 005°26'0 0.1
2014-Oct-17 23:33N 36°08' W 005°26'8 8.5
2014-Oct-17 22:34N 35°60' W 005°24'2 0.4
2014-Oct-17 18:34N 36°01' W 005°24'7 6.7
2014-Oct-17 17:31N 36°08' W 005°26'0 0.0
2014-Oct-17 16:31N 36°08' W 005°26'0 0.0
2014-Oct-17 15:33N 36°08' W 005°26'7 6.8
2014-Oct-17 14:34N 36°02' W 005°22'5 1.7
2014-Oct-17 11:33N 35°59' W 005°27'9 9.2
2014-Oct-17 10:33N 36°08' W 005°26'0 0.0
2014-Oct-17 09:33N 36°08' W 005°26'1 0.5
2014-Oct-17 08:33N 36°08' W 005°26'13 4.2
2014-Oct-17 05:26N 35°56' W 005°31'1415.6
2014-Oct-17 04:34N 36°09' W 005°26'1 1.1
2014-Oct-17 03:30N 36°08' W 005°26'0 0.0
2014-Oct-17 02:30N 36°08' W 005°26'0 0.0
2014-Oct-17 01:30N 36°08' W 005°26'0 0.0
2014-Oct-17 00:30N 36°08' W 005°26'1 1.4
2014-Oct-16 23:33N 36°09' W 005°25'1614.2
2014-Oct-16 22:25N 35°54' W 005°31'0 0.0
2014-Oct-16 19:32N 35°54' W 005°31'1212.7
2014-Oct-16 18:33N 36°04' W 005°22'5 5.3
2014-Oct-16 17:33N 36°08' W 005°26'0 0.0
2014-Oct-16 16:33N 36°08' W 005°26'2 2.1
2014-Oct-16 15:33N 36°08' W 005°24'8 2.0
2014-Oct-16 11:33N 35°60' W 005°26'8 8.2
2014-Oct-16 10:33N 36°08' W 005°26'0 0.0
2014-Oct-16 09:33N 36°08' W 005°26'2 1.8
2014-Oct-16 08:33N 36°08' W 005°24'13 4.0
2014-Oct-16 05:20N 35°56' W 005°30'1316.9
2014-Oct-16 04:33N 36°09' W 005°25'1 1.0
2014-Oct-16 03:25N 36°08' W 005°26'0 0.0
2014-Oct-16 02:31N 36°08' W 005°26'0 0.0
2014-Oct-16 01:31N 36°08' W 005°26'0 0.0
2014-Oct-16 00:31N 36°08' W 005°26'0 0.0
2014-Oct-15 23:33N 36°08' W 005°26'8 8.1
2014-Oct-15 22:33N 36°00' W 005°23'3 0.9
2014-Oct-15 18:33N 35°59' W 005°27'9 8.4
2014-Oct-15 17:32N 36°08' W 005°26'0 0.0
2014-Oct-15 16:32N 36°08' W 005°26'0 0.0
2014-Oct-15 15:33N 36°08' W 005°26'8 8.1
2014-Oct-15 14:34N 36°00' W 005°24'6 2.0
2014-Oct-15 11:29N 35°56' W 005°30'1314.4
2014-Oct-15 10:33N 36°09' W 005°25'1 1.2
2014-Oct-15 09:33N 36°08' W 005°26'1 1.4
2014-Oct-15 08:33N 36°09' W 005°25'1312.8
2014-Oct-15 07:33N 35°57' W 005°29'2 0.6
2014-Oct-15 04:33N 35°58' W 005°28'10 7.1
2014-Oct-15 03:12N 36°08' W 005°26'0 0.0
2014-Oct-15 02:18N 36°08' W 005°26'0 0.0
2014-Oct-15 01:30N 36°08' W 005°26'0 0.2
2014-Oct-15 00:33N 36°08' W 005°26'1110.7
2014-Oct-14 23:33N 35°57' W 005°28'3 0.8
2014-Oct-14 19:33N 35°60' W 005°25'8 2.7
2014-Oct-14 16:33N 36°08' W 005°26'9 8.8
2014-Oct-14 15:33N 35°59' W 005°25'2 0.5
2014-Oct-14 11:34N 36°01' W 005°25'7 6.6
2014-Oct-14 10:33N 36°08' W 005°26'0 0.0
2014-Oct-14 09:32N 36°08' W 005°26'2 2.3
2014-Oct-14 08:33N 36°07' W 005°24'7 2.5
2014-Oct-14 05:33N 36°00' W 005°27'8 7.7
2014-Oct-14 04:33N 36°08' W 005°26'0 0.0
2014-Oct-14 03:33N 36°08' W 005°26'0 0.3
2014-Oct-14 02:30N 36°08' W 005°26'0 0.0
2014-Oct-14 01:33N 36°08' W 005°26'0 0.0
2014-Oct-14 00:33N 36°08' W 005°26'0 0.0
2014-Oct-13 23:33N 36°08' W 005°26'0 0.0
2014-Oct-13 22:33N 36°08' W 005°26'0 0.0
2014-Oct-13 21:33N 36°08' W 005°26'0 0.0
2014-Oct-13 20:33N 36°08' W 005°26'0 0.0
2014-Oct-13 19:33N 36°08' W 005°26'0 0.0
2014-Oct-13 18:33N 36°08' W 005°26'0 0.0
2014-Oct-13 17:33N 36°08' W 005°26'  
Track history (hours):
 
Tides and Currents Weather Stations Pressure Air Temp Water Temp Dewpoint Dewpoint Depression Visibility Wind Speed Wind Dir Waves Ship Positions

Borja

Last reported at 2014-Oct-23 17:25 UTC. Time now 2014-Oct-23 18:34 UTC.
Position N 36°08' W 005°26'.

Length 186 m; draft 6 m.

Type: Ship. MMSI: 247196400.

Date/timePositionNaut miles runAvg speedWind from/ knotsBaromVisibWave heightAir tempDewpointWater temp
2014-Oct-23 17:25N 36°08' W 005°26'0 0.0
2014-Oct-23 16:31N 36°08' W 005°26'0 0.0
2014-Oct-23 15:28N 36°08' W 005°26'2 2.4
2014-Oct-23 14:34N 36°07' W 005°24'12 3.6
2014-Oct-23 11:20N 35°56' W 005°30'1316.7
2014-Oct-23 10:33N 36°09' W 005°25'1 1.1
2014-Oct-23 09:33N 36°08' W 005°26'1 1.1
2014-Oct-23 08:32N 36°09' W 005°26'16 5.2
2014-Oct-23 05:24N 35°53' W 005°31'1113.2
2014-Oct-23 04:33N 36°03' W 005°24'5 4.7
2014-Oct-23 03:26N 36°08' W 005°26'0 0.0
2014-Oct-23 02:23N 36°08' W 005°26'0 0.0
2014-Oct-23 01:28N 36°08' W 005°26'0 0.1
2014-Oct-23 00:33N 36°08' W 005°26'9 9.5
2014-Oct-22 23:34N 35°59' W 005°26'5 1.5
2014-Oct-22 20:26N 35°56' W 005°30'1315.1
2014-Oct-22 19:33N 36°09' W 005°25'1 1.1
2014-Oct-22 18:33N 36°08' W 005°26'0 0.0
2014-Oct-22 17:33N 36°08' W 005°26'2 1.8
2014-Oct-22 16:33N 36°08' W 005°24'13 2.5
2014-Oct-22 11:27N 35°56' W 005°30'1314.8
2014-Oct-22 10:33N 36°09' W 005°26'1 1.0
2014-Oct-22 09:33N 36°08' W 005°26'1 1.1
2014-Oct-22 08:34N 36°09' W 005°26'13 3.9
2014-Oct-22 05:10N 35°57' W 005°31'1016.1
2014-Oct-22 04:33N 36°05' W 005°24'4 3.9
2014-Oct-22 03:33N 36°08' W 005°26'0 0.0
2014-Oct-22 02:33N 36°08' W 005°26'0 0.0
2014-Oct-22 01:33N 36°08' W 005°26'1 1.4
2014-Oct-22 00:33N 36°09' W 005°25'0 0.1
2014-Oct-21 23:33N 36°09' W 005°25'8 8.5
2014-Oct-21 22:34N 36°01' W 005°24'6 2.1
2014-Oct-21 19:32N 35°57' W 005°30'1212.2
2014-Oct-21 18:34N 36°08' W 005°26'0 0.2
2014-Oct-21 17:34N 36°08' W 005°26'0 0.0
2014-Oct-21 16:33N 36°08' W 005°26'6 5.8
2014-Oct-21 15:33N 36°03' W 005°23'2 0.6
2014-Oct-21 12:33N 36°02' W 005°25'6 6.2
2014-Oct-21 11:33N 36°08' W 005°26'0 0.0
2014-Oct-21 10:33N 36°08' W 005°26'9 8.5
2014-Oct-21 09:33N 35°59' W 005°25'2 0.6
2014-Oct-21 06:33N 36°01' W 005°25'6 2.9
2014-Oct-21 04:21N 36°08' W 005°26'0 0.0
2014-Oct-21 03:27N 36°08' W 005°26'0 0.0
2014-Oct-21 02:33N 36°08' W 005°26'0 0.0
2014-Oct-21 01:27N 36°08' W 005°26'0 0.1
2014-Oct-20 23:13N 36°08' W 005°26'0 0.7
2014-Oct-20 22:33N 36°08' W 005°26'8 2.1
2014-Oct-20 18:29N 36°00' W 005°24'8 3.5
2014-Oct-20 16:09N 36°08' W 005°26'4 7.0
2014-Oct-20 15:33N 36°05' W 005°23'8 2.0
2014-Oct-20 11:33N 35°58' W 005°29'10 9.6
2014-Oct-20 10:32N 36°08' W 005°26'0 0.0
2014-Oct-20 09:33N 36°08' W 005°26'3 3.0
2014-Oct-20 08:33N 36°06' W 005°24'5 1.2
2014-Oct-20 04:31N 36°01' W 005°26'7 5.8
2014-Oct-20 03:22N 36°08' W 005°26'0 0.0
2014-Oct-20 02:28N 36°08' W 005°26'0 0.0
2014-Oct-20 01:31N 36°08' W 005°26'0 0.0
2014-Oct-20 00:16N 36°08' W 005°26'0 0.0
2014-Oct-19 23:31N 36°08' W 005°26'3 3.4
2014-Oct-19 22:34N 36°06' W 005°23'15 4.6
2014-Oct-19 19:22N 35°53' W 005°31'1316.6
2014-Oct-19 18:34N 36°05' W 005°23'4 3.9
2014-Oct-19 17:32N 36°08' W 005°26'0 0.0
2014-Oct-19 16:33N 36°08' W 005°26'4 3.8
2014-Oct-19 15:34N 36°05' W 005°23'3 0.6
2014-Oct-19 11:33N 36°03' W 005°24'5 5.3
2014-Oct-19 10:33N 36°08' W 005°26'0 0.0
2014-Oct-19 09:34N 36°08' W 005°26'1 1.0
2014-Oct-19 08:33N 36°09' W 005°26'1615.3
2014-Oct-19 07:30N 35°53' W 005°31'9 3.0
2014-Oct-19 04:33N 36°01' W 005°26'7 6.7
2014-Oct-19 03:32N 36°08' W 005°26'0 0.0
2014-Oct-19 02:32N 36°08' W 005°26'0 0.0
2014-Oct-19 01:32N 36°08' W 005°26'0 0.0
2014-Oct-19 00:32N 36°08' W 005°26'1 1.1
2014-Oct-18 23:34N 36°09' W 005°26'1212.4
2014-Oct-18 22:34N 35°57' W 005°29'4 1.3
2014-Oct-18 19:14N 35°53' W 005°31'811.3
2014-Oct-18 18:33N 35°59' W 005°26'9 8.2
2014-Oct-18 17:31N 36°08' W 005°26'0 0.0
2014-Oct-18 16:31N 36°08' W 005°26'0 0.2
2014-Oct-18 15:33N 36°08' W 005°26'1010.3
2014-Oct-18 14:33N 35°58' W 005°27'3 1.1
2014-Oct-18 11:30N 35°56' W 005°30'1212.9
2014-Oct-18 10:33N 36°08' W 005°26'0 0.3
2014-Oct-18 09:33N 36°08' W 005°26'2 1.8
2014-Oct-18 08:33N 36°08' W 005°24'16 4.5
2014-Oct-18 05:03N 35°53' W 005°31'817.1
2014-Oct-18 04:34N 36°00' W 005°26'8 7.5
2014-Oct-18 03:33N 36°08' W 005°26'0 0.0
2014-Oct-18 02:33N 36°08' W 005°26'0 0.0
2014-Oct-18 01:18N 36°08' W 005°26'0 0.0
2014-Oct-18 00:33N 36°08' W 005°26'0 0.1
2014-Oct-17 23:33N 36°08' W 005°26'8 8.5
2014-Oct-17 22:34N 35°60' W 005°24'2 0.4
2014-Oct-17 18:34N 36°01' W 005°24'7 6.7
2014-Oct-17 17:31N 36°08' W 005°26'0 0.0
2014-Oct-17 16:31N 36°08' W 005°26'0 0.0
2014-Oct-17 15:33N 36°08' W 005°26'7 6.8
2014-Oct-17 14:34N 36°02' W 005°22'5 1.7
2014-Oct-17 11:33N 35°59' W 005°27'9 9.2
2014-Oct-17 10:33N 36°08' W 005°26'0 0.0
2014-Oct-17 09:33N 36°08' W 005°26'1 0.5
2014-Oct-17 08:33N 36°08' W 005°26'13 4.2
2014-Oct-17 05:26N 35°56' W 005°31'1415.6
2014-Oct-17 04:34N 36°09' W 005°26'1 1.1
2014-Oct-17 03:30N 36°08' W 005°26'0 0.0
2014-Oct-17 02:30N 36°08' W 005°26'0 0.0
2014-Oct-17 01:30N 36°08' W 005°26'0 0.0
2014-Oct-17 00:30N 36°08' W 005°26'1 1.4
2014-Oct-16 23:33N 36°09' W 005°25'1614.2
2014-Oct-16 22:25N 35°54' W 005°31'0 0.0
2014-Oct-16 19:32N 35°54' W 005°31'1212.7
2014-Oct-16 18:33N 36°04' W 005°22'5 5.3
2014-Oct-16 17:33N 36°08' W 005°26'0 0.0
2014-Oct-16 16:33N 36°08' W 005°26'2 2.1
2014-Oct-16 15:33N 36°08' W 005°24'8 2.0
2014-Oct-16 11:33N 35°60' W 005°26'8 8.2
2014-Oct-16 10:33N 36°08' W 005°26'0 0.0
2014-Oct-16 09:33N 36°08' W 005°26'2 1.8
2014-Oct-16 08:33N 36°08' W 005°24'13 4.0
2014-Oct-16 05:20N 35°56' W 005°30'1316.9
2014-Oct-16 04:33N 36°09' W 005°25'1 1.0
2014-Oct-16 03:25N 36°08' W 005°26'0 0.0
2014-Oct-16 02:31N 36°08' W 005°26'0 0.0
2014-Oct-16 01:31N 36°08' W 005°26'0 0.0
2014-Oct-16 00:31N 36°08' W 005°26'0 0.0
2014-Oct-15 23:33N 36°08' W 005°26'8 8.1
2014-Oct-15 22:33N 36°00' W 005°23'3 0.9
2014-Oct-15 18:33N 35°59' W 005°27'9 8.4
2014-Oct-15 17:32N 36°08' W 005°26'0 0.0
2014-Oct-15 16:32N 36°08' W 005°26'0 0.0
2014-Oct-15 15:33N 36°08' W 005°26'8 8.1
2014-Oct-15 14:34N 36°00' W 005°24'6 2.0
2014-Oct-15 11:29N 35°56' W 005°30'1314.4
2014-Oct-15 10:33N 36°09' W 005°25'1 1.2
2014-Oct-15 09:33N 36°08' W 005°26'1 1.4
2014-Oct-15 08:33N 36°09' W 005°25'1312.8
2014-Oct-15 07:33N 35°57' W 005°29'2 0.6
2014-Oct-15 04:33N 35°58' W 005°28'10 7.1
2014-Oct-15 03:12N 36°08' W 005°26'0 0.0
2014-Oct-15 02:18N 36°08' W 005°26'0 0.0
2014-Oct-15 01:30N 36°08' W 005°26'0 0.2
2014-Oct-15 00:33N 36°08' W 005°26'1110.7
2014-Oct-14 23:33N 35°57' W 005°28'3 0.8
2014-Oct-14 19:33N 35°60' W 005°25'8 2.7
2014-Oct-14 16:33N 36°08' W 005°26'9 8.8
2014-Oct-14 15:33N 35°59' W 005°25'2 0.5
2014-Oct-14 11:34N 36°01' W 005°25'7 6.6
2014-Oct-14 10:33N 36°08' W 005°26'0 0.0
2014-Oct-14 09:32N 36°08' W 005°26'2 2.3
2014-Oct-14 08:33N 36°07' W 005°24'7 2.5
2014-Oct-14 05:33N 36°00' W 005°27'8 7.7
2014-Oct-14 04:33N 36°08' W 005°26'0 0.0
2014-Oct-14 03:33N 36°08' W 005°26'0 0.3
2014-Oct-14 02:30N 36°08' W 005°26'0 0.0
2014-Oct-14 01:33N 36°08' W 005°26'0 0.0
2014-Oct-14 00:33N 36°08' W 005°26'0 0.0
2014-Oct-13 23:33N 36°08' W 005°26'0 0.0
2014-Oct-13 22:33N 36°08' W 005°26'0 0.0
2014-Oct-13 21:33N 36°08' W 005°26'0 0.0
2014-Oct-13 20:33N 36°08' W 005°26'0 0.0
2014-Oct-13 19:33N 36°08' W 005°26'0 0.0
2014-Oct-13 18:33N 36°08' W 005°26'0 0.0
2014-Oct-13 17:33N 36°08' W 005°26'  

Dump ship's entire track history